Time;durP1;ratioP1;P1;durP2;ratioP2;P2;SDS_P1;SDS_P2;PMS_P1;PMS_P2;Temp;Humidity;BMP_temperature;BMP_pressure;BME280_temperature;BME280_humidity;BME280_pressure;Samples;Min_cycle;Max_cycle;Signal;HPM_P1;HPM_P2
2022/07/04 00:01:07;;;;;;;7.32;4.80;;;;;;;24.28;49.08;98693.59;5130562;28;20480;-90
2022/07/04 00:03:32;;;;;;;9.15;4.80;;;;;;;24.35;49.37;98694.78;5130536;27;20131;-89
2022/07/04 00:05:58;;;;;;;6.40;4.43;;;;;;;24.26;49.93;98688.25;5130675;27;20035;-89
2022/07/04 00:08:25;;;;;;;8.93;4.63;;;;;;;24.25;50.16;98710.16;5130971;27;20050;-89
2022/07/04 00:10:51;;;;;;;8.02;4.95;;;;;;;24.18;50.43;98699.81;5128303;28;20042;-88
2022/07/04 00:13:17;;;;;;;7.32;4.68;;;;;;;24.03;51.17;98692.06;5130434;28;20040;-89
2022/07/04 00:15:42;;;;;;;8.60;4.55;;;;;;;24.02;51.27;98698.50;5130526;27;20092;-89
2022/07/04 00:18:08;;;;;;;6.75;4.85;;;;;;;23.96;50.23;98695.31;5130329;28;20092;-92
2022/07/04 00:20:34;;;;;;;8.70;5.00;;;;;;;23.98;50.12;98698.78;5131928;28;20072;-89
2022/07/04 00:23:00;;;;;;;8.65;4.95;;;;;;;23.98;50.10;98687.91;5130651;28;20046;-88
2022/07/04 00:25:27;;;;;;;7.57;4.95;;;;;;;24.01;50.01;98696.75;5130179;28;20031;-89
2022/07/04 00:27:53;;;;;;;8.07;4.65;;;;;;;23.93;50.15;98686.56;5130475;27;20032;-87
2022/07/04 00:30:19;;;;;;;9.40;5.05;;;;;;;23.88;50.92;98686.94;5130214;27;20044;-90
2022/07/04 00:32:44;;;;;;;6.57;4.53;;;;;;;23.82;51.02;98682.00;5130253;27;20038;-88
2022/07/04 00:35:10;;;;;;;8.30;4.75;;;;;;;23.77;51.50;98686.97;5130196;27;20409;-88
2022/07/04 00:37:36;;;;;;;6.85;5.03;;;;;;;23.65;51.56;98687.94;5130348;27;20236;-89
2022/07/04 00:40:02;;;;;;;8.70;4.53;;;;;;;23.58;52.07;98685.72;5130223;27;20404;-89
2022/07/04 00:42:29;;;;;;;9.27;4.75;;;;;;;23.51;52.86;98687.22;5130432;27;20046;-89
2022/07/04 00:44:55;;;;;;;7.68;5.25;;;;;;;23.37;53.15;98682.91;5133254;28;20039;-89
2022/07/04 00:47:21;;;;;;;6.55;4.57;;;;;;;23.29;53.00;98671.84;5129692;27;20446;-91
2022/07/04 00:49:46;;;;;;;8.35;4.88;;;;;;;23.35;53.27;98690.31;5128875;27;20085;-88
2022/07/04 00:52:13;;;;;;;9.80;4.97;;;;;;;23.24;53.25;98678.59;5130159;27;20036;-87
2022/07/04 00:54:39;;;;;;;8.15;4.90;;;;;;;23.11;53.01;98665.16;5129389;27;20051;-88
2022/07/04 00:57:06;;;;;;;7.35;4.90;;;;;;;23.17;53.13;98686.38;5129855;27;20039;-88
2022/07/04 00:59:33;;;;;;;8.13;4.65;;;;;;;23.04;53.45;98674.78;5129293;28;20090;-91
2022/07/04 01:01:59;;;;;;;7.22;4.80;;;;;;;23.11;53.35;98689.56;5119868;28;20397;-88
2022/07/04 01:04:24;;;;;;;7.63;4.78;;;;;;;22.96;53.60;98678.06;5115921;28;20031;-90
2022/07/04 01:06:50;;;;;;;6.75;5.00;;;;;;;23.04;53.19;98694.63;5115765;28;20408;-87
2022/07/04 01:09:16;;;;;;;11.75;5.25;;;;;;;22.91;53.00;98667.59;5115697;28;20044;-88
2022/07/04 01:11:42;;;;;;;8.23;4.70;;;;;;;23.06;53.52;98689.09;5115928;28;20411;-90
2022/07/04 01:14:08;;;;;;;7.75;4.70;;;;;;;23.11;53.19;98687.72;5115361;28;20032;-88
2022/07/04 01:16:35;;;;;;;7.28;4.72;;;;;;;23.11;53.39;98692.28;5115573;28;20505;-90
2022/07/04 01:19:00;;;;;;;7.05;5.00;;;;;;;23.10;52.84;98696.84;5115763;28;20047;-89
2022/07/04 01:21:28;;;;;;;6.55;4.75;;;;;;;23.09;52.62;98694.25;5115953;28;20438;-90
2022/07/04 01:23:54;;;;;;;5.88;4.22;;;;;;;23.10;52.56;98688.72;5115618;28;20047;-87
2022/07/04 01:26:20;;;;;;;9.73;5.35;;;;;;;23.00;53.39;98668.75;5115294;28;20032;-90
2022/07/04 01:28:46;;;;;;;10.93;4.53;;;;;;;23.06;54.06;98689.09;5115374;28;20508;-89
2022/07/04 01:31:12;;;;;;;7.35;5.10;;;;;;;22.90;53.97;98692.09;5115533;28;20046;-89
2022/07/04 01:33:38;;;;;;;6.82;5.20;;;;;;;22.85;54.78;98686.19;5115335;27;20065;-87
2022/07/04 01:36:04;;;;;;;8.57;4.90;;;;;;;22.70;54.78;98688.25;5116687;27;20043;-89
2022/07/04 01:38:32;;;;;;;7.70;4.90;;;;;;;22.59;54.12;98670.13;5115340;28;20044;-89
2022/07/04 01:40:57;;;;;;;7.65;5.10;;;;;;;22.68;54.54;98684.81;5115493;28;20046;-88
2022/07/04 01:43:23;;;;;;;6.93;4.93;;;;;;;22.77;54.12;98686.81;5114734;28;20039;-89
2022/07/04 01:45:49;;;;;;;7.43;4.60;;;;;;;22.78;54.42;98691.25;5116038;28;20044;-91
2022/07/04 01:48:15;;;;;;;6.75;5.10;;;;;;;22.63;54.68;98678.88;5115160;28;20050;-89
2022/07/04 01:50:41;;;;;;;7.22;4.57;;;;;;;22.71;54.69;98699.00;5114858;28;20046;-90
2022/07/04 01:53:07;;;;;;;7.07;5.03;;;;;;;22.69;55.07;98700.09;5115308;28;20035;-90
2022/07/04 01:55:34;;;;;;;8.45;4.70;;;;;;;22.61;55.11;98697.97;5114987;28;20039;-88
2022/07/04 01:58:00;;;;;;;7.78;5.10;;;;;;;22.58;55.27;98702.78;5115222;28;20040;-90
2022/07/04 02:03:19;;;;;;;7.30;5.28;;;;;;;22.52;55.85;98704.97;5089319;27;20386;-92
2022/07/04 02:05:45;;;;;;;9.75;5.20;;;;;;;22.44;55.77;98699.28;5090024;28;20549;-92
2022/07/04 02:08:11;;;;;;;7.05;4.68;;;;;;;22.46;55.41;98704.59;5090120;28;20119;-89
2022/07/04 02:10:37;;;;;;;7.55;4.85;;;;;;;22.23;56.25;98690.97;5089247;28;20139;-88
2022/07/04 02:13:03;;;;;;;11.23;5.75;;;;;;;22.10;56.69;98692.84;5090823;28;20079;-89
2022/07/04 02:15:29;;;;;;;7.75;4.80;;;;;;;22.10;56.68;98707.25;5089183;28;20043;-90
2022/07/04 02:17:55;;;;;;;7.30;4.90;;;;;;;22.09;56.81;98710.06;5089087;28;20040;-88
2022/07/04 02:20:23;;;;;;;7.82;5.22;;;;;;;22.05;57.36;98708.56;5089262;28;20413;-89
2022/07/04 02:22:49;;;;;;;6.63;5.00;;;;;;;21.95;57.31;98692.16;5088399;28;20056;-93
2022/07/04 02:25:15;;;;;;;7.45;4.78;;;;;;;22.05;57.43;98716.69;5089050;28;20305;-91
2022/07/04 02:27:41;;;;;;;6.75;5.10;;;;;;;21.89;57.72;98690.75;5089604;28;20043;-91
2022/07/04 02:30:07;;;;;;;9.27;5.22;;;;;;;22.00;58.50;98708.06;5089578;28;20040;-91
2022/07/04 02:32:33;;;;;;;8.20;5.40;;;;;;;21.91;58.55;98690.66;5089438;28;20063;-90
2022/07/04 02:34:59;;;;;;;7.88;5.22;;;;;;;21.88;58.27;98699.00;5089415;28;20039;-91
2022/07/04 02:37:26;;;;;;;11.02;5.32;;;;;;;21.82;59.11;98694.91;5089315;28;20040;-89
2022/07/04 02:39:52;;;;;;;6.80;5.30;;;;;;;21.91;58.80;98698.78;5089096;28;20541;-90
2022/07/04 02:42:19;;;;;;;7.55;5.15;;;;;;;21.85;59.10;98694.69;5089136;28;20040;-89
2022/07/04 02:44:45;;;;;;;8.38;4.90;;;;;;;21.97;58.74;98713.69;5089021;28;20038;-89
2022/07/04 02:47:11;;;;;;;10.23;5.90;;;;;;;21.83;58.96;98688.50;5089686;28;20060;-92
2022/07/04 02:49:37;;;;;;;9.55;5.88;;;;;;;21.93;58.48;98700.38;5087514;28;20051;-90
2022/07/04 02:52:03;;;;;;;7.47;5.50;;;;;;;21.93;56.99;98696.81;5089286;28;20044;-91
2022/07/04 02:54:30;;;;;;;11.20;5.53;;;;;;;21.82;57.07;98665.13;5089322;28;20036;-92
2022/07/04 02:56:56;;;;;;;12.10;5.70;;;;;;;21.73;58.38;98672.09;5088645;28;20041;-88
2022/07/04 02:59:22;;;;;;;7.55;5.45;;;;;;;21.80;58.51;98691.47;5089115;28;20044;-90
2022/07/04 03:01:47;;;;;;;7.65;5.32;;;;;;;21.80;58.37;98683.34;5089262;28;20040;-88
2022/07/04 03:04:13;;;;;;;7.43;5.57;;;;;;;21.73;58.70;98693.75;5089684;28;20041;-92
2022/07/04 03:06:39;;;;;;;7.10;5.25;;;;;;;21.61;59.23;98694.66;5088888;28;20048;-90
2022/07/04 03:09:06;;;;;;;8.70;5.53;;;;;;;21.60;59.01;98702.88;5088717;28;20082;-93
2022/07/04 03:11:33;;;;;;;10.00;5.55;;;;;;;21.45;60.10;98692.22;5088751;28;20036;-89
2022/07/04 03:13:59;;;;;;;9.63;5.43;;;;;;;21.37;60.56;98696.44;5079508;28;20123;-90
2022/07/04 03:16:24;;;;;;;9.68;5.38;;;;;;;21.40;60.13;98707.88;5075401;28;20528;-89
2022/07/04 03:18:50;;;;;;;9.32;5.50;;;;;;;21.26;60.77;98702.63;5075122;28;20044;-91
2022/07/04 03:21:16;;;;;;;7.88;5.70;;;;;;;21.30;60.20;98713.09;5075349;28;20363;-90
2022/07/04 03:23:41;;;;;;;7.30;5.50;;;;;;;21.18;60.34;98705.00;5074334;28;20078;-88
2022/07/04 03:26:08;;;;;;;7.97;5.55;;;;;;;21.10;61.05;98706.41;5074917;28;20097;-90
2022/07/04 03:28:36;;;;;;;7.15;5.28;;;;;;;21.01;61.18;98714.31;5074853;28;20037;-89
2022/07/04 03:31:02;;;;;;;6.97;5.75;;;;;;;20.98;61.14;98715.38;5075268;28;20123;-87
2022/07/04 03:33:27;;;;;;;7.93;5.70;;;;;;;20.99;60.83;98714.44;5074783;28;20115;-90
2022/07/04 03:35:53;;;;;;;7.93;5.68;;;;;;;20.91;61.47;98719.50;5075114;28;20520;-91
2022/07/04 03:38:19;;;;;;;8.82;5.97;;;;;;;20.91;61.75;98728.47;5073287;28;20040;-89
2022/07/04 03:40:44;;;;;;;7.43;5.68;;;;;;;20.92;62.04;98718.53;5075313;28;20037;-88
2022/07/04 03:43:10;;;;;;;8.50;5.28;;;;;;;20.83;61.21;98705.66;5074906;28;20405;-90
2022/07/04 03:45:37;;;;;;;9.52;5.88;;;;;;;20.93;61.50;98733.78;5074661;28;20486;-88
2022/07/04 03:48:03;;;;;;;10.05;5.85;;;;;;;20.93;60.61;98718.41;5074630;28;20045;-89
2022/07/04 03:50:29;;;;;;;9.18;5.43;;;;;;;20.88;60.58;98722.41;5074538;28;20542;-89
2022/07/04 03:52:55;;;;;;;7.30;5.50;;;;;;;20.96;60.85;98736.25;5074473;28;20123;-88
2022/07/04 03:55:21;;;;;;;7.50;5.50;;;;;;;20.97;60.91;98724.50;5074191;28;20060;-90
2022/07/04 03:57:46;;;;;;;8.32;5.30;;;;;;;20.91;60.59;98706.00;5074512;28;20040;-92
2022/07/04 04:00:13;;;;;;;8.20;4.88;;;;;;;21.09;61.00;98728.16;5074346;28;20040;-91
2022/07/04 04:02:40;;;;;;;8.57;5.45;;;;;;;21.02;60.22;98713.34;5074073;28;20044;-89
2022/07/04 04:08:01;;;;;;;7.85;5.28;;;;;;;21.17;61.31;98728.47;5131194;27;20382;-91
2022/07/04 04:10:29;;;;;;;12.43;5.65;;;;;;;21.24;61.00;98728.91;5130404;27;20078;-87
2022/07/04 04:12:54;;;;;;;8.75;5.57;;;;;;;21.11;61.42;98697.31;5130815;27;20053;-89
2022/07/04 04:15:21;;;;;;;9.18;5.90;;;;;;;21.18;61.60;98705.00;5130681;27;20036;-91
2022/07/04 04:17:47;;;;;;;9.90;5.78;;;;;;;21.24;62.01;98713.53;5129839;27;20527;-91
2022/07/04 04:20:15;;;;;;;6.80;5.78;;;;;;;21.32;61.85;98731.94;5130473;28;20039;-89
2022/07/04 04:22:41;;;;;;;;;;;;;;;21.43;61.26;98734.75;5130628;27;20031;-87
2022/07/04 04:25:09;;;;;;;9.60;6.30;;;;;;;21.33;61.73;98715.56;5130680;28;19926;-90
2022/07/04 04:27:35;;;;;;;7.13;5.70;;;;;;;21.42;61.90;98732.16;5130060;27;20039;-90
2022/07/04 04:30:01;;;;;;;8.38;5.82;;;;;;;21.38;62.55;98730.59;5129970;27;20263;-89
2022/07/04 04:32:26;;;;;;;9.82;6.05;;;;;;;21.45;61.94;98726.53;5130306;27;20138;-88
2022/07/04 04:34:52;;;;;;;7.38;5.78;;;;;;;21.50;61.78;98733.31;5130412;27;20051;-90
2022/07/04 04:37:18;;;;;;;9.35;5.82;;;;;;;21.44;62.61;98731.06;5130440;27;20031;-88
2022/07/04 04:39:43;;;;;;;9.77;6.00;;;;;;;21.42;62.25;98722.19;5130106;27;20493;-90
2022/07/04 04:42:11;;;;;;;8.32;5.82;;;;;;;21.53;63.00;98743.94;5129584;28;20091;-87
2022/07/04 04:44:36;;;;;;;7.55;5.90;;;;;;;21.54;63.03;98742.94;5129613;28;20039;-91
2022/07/04 04:47:02;;;;;;;6.72;5.65;;;;;;;21.59;63.96;98733.63;5129897;27;20111;-89
2022/07/04 04:49:28;;;;;;;9.13;6.30;;;;;;;21.56;63.38;98717.59;5129902;27;20035;-90
2022/07/04 04:51:54;;;;;;;10.63;6.07;;;;;;;21.75;61.89;98734.22;5130152;27;20043;-87
2022/07/04 04:54:20;;;;;;;9.63;6.05;;;;;;;21.81;61.65;98722.09;5129200;27;20084;-88
2022/07/04 04:56:45;;;;;;;7.65;5.40;;;;;;;21.97;59.90;98729.94;5129626;28;20038;-88
2022/07/04 04:59:12;;;;;;;9.35;5.80;;;;;;;22.41;57.49;98729.31;5129685;27;20084;-89
2022/07/04 05:01:38;;;;;;;9.18;5.63;;;;;;;23.00;56.27;98736.53;5129326;28;20041;-90
2022/07/04 05:04:04;;;;;;;6.40;5.30;;;;;;;23.56;55.39;98733.00;5129232;27;20559;-89
2022/07/04 05:06:30;;;;;;;7.80;5.75;;;;;;;24.22;54.27;98738.44;5128865;27;20047;-92
2022/07/04 05:08:55;;;;;;;12.25;6.07;;;;;;;24.90;52.55;98728.13;5129403;28;20036;-91
2022/07/04 05:11:21;;;;;;;11.07;6.28;;;;;;;25.35;51.25;98722.41;5129123;28;20040;-88
2022/07/04 05:13:47;;;;;;;9.80;5.75;;;;;;;25.70;49.05;98720.22;5129640;27;20043;-87
2022/07/04 05:16:14;;;;;;;8.68;5.82;;;;;;;25.45;49.18;98711.53;5128808;28;20108;-91
2022/07/04 05:18:40;;;;;;;8.10;5.68;;;;;;;25.61;48.69;98711.00;5119039;28;20095;-90
2022/07/04 05:21:05;;;;;;;7.72;5.28;;;;;;;25.77;48.11;98729.56;5115261;28;20075;-91
2022/07/04 05:23:31;;;;;;;9.75;5.75;;;;;;;25.56;48.13;98729.66;5115297;28;20039;-88
2022/07/04 05:25:57;;;;;;;8.07;5.60;;;;;;;25.15;49.15;98726.84;5114511;27;20046;-90
2022/07/04 05:28:23;;;;;;;9.35;5.85;;;;;;;24.95;49.54;98733.19;5114966;28;20036;-91
2022/07/04 05:30:49;;;;;;;8.00;5.65;;;;;;;24.87;49.95;98735.69;5115392;28;20071;-90
2022/07/04 05:33:16;;;;;;;10.82;5.70;;;;;;;24.53;50.98;98730.47;5115309;28;20118;-89
2022/07/04 05:35:42;;;;;;;6.38;5.60;;;;;;;24.19;51.22;98723.25;5116396;27;20043;-89
2022/07/04 05:38:08;;;;;;;7.88;5.60;;;;;;;24.78;49.92;98727.31;5114626;28;20035;-87
2022/07/04 05:40:33;;;;;;;9.32;5.60;;;;;;;24.90;49.28;98702.81;5114828;28;20047;-92
2022/07/04 05:42:59;;;;;;;9.00;5.82;;;;;;;24.85;49.56;98732.25;5114913;28;20487;-87
2022/07/04 05:45:25;;;;;;;10.20;5.60;;;;;;;24.84;49.42;98723.22;5115318;27;20043;-89
2022/07/04 05:47:51;;;;;;;9.48;6.20;;;;;;;25.01;48.89;98703.56;5114831;27;20073;-91
2022/07/04 05:50:18;;;;;;;9.45;5.95;;;;;;;24.76;49.34;98688.53;5114800;28;20067;-89
2022/07/04 05:52:44;;;;;;;10.77;6.03;;;;;;;25.04;48.84;98702.44;5114630;28;20501;-91
2022/07/04 05:55:09;;;;;;;7.88;5.70;;;;;;;25.67;48.18;98713.19;5116290;27;20122;-88
2022/07/04 05:57:35;;;;;;;8.88;5.55;;;;;;;25.70;47.03;98710.22;5114402;28;20431;-89
2022/07/04 06:00:02;;;;;;;6.10;5.32;;;;;;;25.41;48.04;98707.38;5114627;28;20417;-88
2022/07/04 06:02:27;;;;;;;11.32;5.90;;;;;;;25.56;48.05;98700.53;5113708;28;20046;-90
2022/07/04 06:04:53;;;;;;;8.30;5.50;;;;;;;25.94;46.88;98714.47;5113829;27;20028;-90
2022/07/04 06:07:20;;;;;;;6.90;5.20;;;;;;;26.10;46.48;98711.19;5113981;28;20047;-90
2022/07/04 06:09:46;;;;;;;11.07;5.60;;;;;;;26.41;45.14;98722.81;5112473;28;20052;-90
2022/07/04 06:12:11;;;;;;;10.10;5.55;;;;;;;26.48;45.10;98706.72;5113852;28;20125;-90
2022/07/04 06:14:37;;;;;;;9.88;5.50;;;;;;;26.83;44.26;98719.81;5103659;28;20092;-87
2022/07/04 06:17:03;;;;;;;7.80;5.22;;;;;;;26.97;43.91;98697.50;5111350;28;20054;-93
2022/07/04 06:19:29;;;;;;;6.65;5.18;;;;;;;27.32;43.61;98715.09;5110932;28;20548;-91
2022/07/04 06:21:55;;;;;;;9.23;5.38;;;;;;;27.28;43.70;98718.28;5115130;27;20035;-90
2022/07/04 06:24:22;;;;;;;8.63;5.32;;;;;;;27.21;44.60;98697.03;5113525;28;20119;-88
2022/07/04 06:26:48;;;;;;;8.03;5.10;;;;;;;27.34;41.77;98688.50;5113839;28;21368;-88
2022/07/04 06:29:14;;;;;;;7.65;5.55;;;;;;;27.64;42.50;98709.22;5106300;28;20040;-90
2022/07/04 06:31:40;;;;;;;7.45;5.13;;;;;;;27.76;41.29;98700.81;5114418;27;20043;-85
2022/07/04 06:36:58;;;;;;;9.60;5.70;;;;;;;28.13;40.76;98716.28;5130092;27;20868;-90
2022/07/04 06:39:24;;;;;;;8.68;5.30;;;;;;;28.21;40.08;98705.44;5130072;28;20065;-91
2022/07/04 06:41:50;;;;;;;6.70;5.43;;;;;;;28.27;40.38;98716.59;5130377;27;20043;-90
2022/07/04 06:44:15;;;;;;;6.18;5.07;;;;;;;28.45;38.97;98693.88;5129878;27;20036;-91
2022/07/04 06:46:41;;;;;;;7.28;5.30;;;;;;;28.58;39.88;98698.97;5130282;27;20088;-92
2022/07/04 06:49:07;;;;;;;7.15;4.97;;;;;;;28.83;39.66;98700.88;5129063;27;20036;-89
2022/07/04 06:51:32;;;;;;;8.73;5.28;;;;;;;28.95;38.77;98698.78;5128504;27;20042;-89
2022/07/04 06:53:59;;;;;;;10.90;5.50;;;;;;;28.83;40.33;98695.41;5129212;27;20035;-91
2022/07/04 06:56:25;;;;;;;11.32;5.50;;;;;;;28.70;40.65;98694.97;5129463;28;20036;-91
2022/07/04 06:58:51;;;;;;;7.30;5.07;;;;;;;28.70;40.75;98725.06;5130031;27;20038;-91
2022/07/04 07:01:17;;;;;;;7.68;5.80;;;;;;;28.32;40.76;98707.06;5129599;28;20037;-91
2022/07/04 07:03:42;;;;;;;9.07;6.00;;;;;;;28.49;40.41;98710.88;5130233;27;20808;-88
2022/07/04 07:06:08;;;;;;;8.73;5.88;;;;;;;28.73;40.02;98715.69;5130172;28;20050;-93
2022/07/04 07:08:34;;;;;;;12.13;5.97;;;;;;;28.94;40.21;98710.72;5129911;28;20515;-89
2022/07/04 07:14:00;;;;;;;10.07;5.53;;;;;;;29.53;38.39;98702.69;5090025;27;20423;-92
2022/07/04 07:16:26;;;;;;;9.63;5.20;;;;;;;29.68;38.13;98694.72;5089215;28;20051;-89
2022/07/04 07:18:52;;;;;;;12.20;5.60;;;;;;;29.79;38.30;98693.59;5089607;28;20041;-92
2022/07/04 07:21:18;;;;;;;9.98;5.43;;;;;;;29.78;38.17;98678.19;5089586;28;20496;-91
2022/07/04 07:23:43;;;;;;;8.95;5.55;;;;;;;29.73;37.85;98689.63;5089510;28;20044;-89
2022/07/04 07:26:10;;;;;;;10.25;5.82;;;;;;;29.67;38.07;98693.88;5089030;28;20363;-92
2022/07/04 07:28:36;;;;;;;8.27;5.65;;;;;;;29.26;39.15;98688.19;5089559;28;20506;-90
2022/07/04 07:31:03;;;;;;;9.02;5.85;;;;;;;29.49;39.19;98693.09;5089697;28;20032;-91
2022/07/04 07:33:29;;;;;;;7.93;6.07;;;;;;;29.67;39.75;98671.94;5089242;28;20393;-93
2022/07/04 07:35:55;;;;;;;8.43;5.40;;;;;;;29.99;38.99;98681.31;5089162;28;20127;-91
2022/07/04 07:38:21;;;;;;;9.32;5.63;;;;;;;30.07;37.70;98688.72;5089329;28;20032;-90
2022/07/04 07:40:46;;;;;;;8.18;5.70;;;;;;;30.01;38.16;98676.50;5089208;28;20111;-91
2022/07/04 07:43:12;;;;;;;8.65;5.70;;;;;;;30.34;37.70;98689.47;5089837;28;20044;-92
2022/07/04 07:45:38;;;;;;;10.32;6.00;;;;;;;30.46;37.32;98675.25;5088473;28;20044;-92
2022/07/04 07:48:06;;;;;;;10.43;5.63;;;;;;;30.17;37.88;98688.56;5088497;28;20036;-90
2022/07/04 07:50:32;;;;;;;;;;;;;;;30.14;37.41;98691.63;5088637;28;20048;-91
2022/07/04 07:52:57;;;;;;;10.73;6.05;;;;;;;30.44;37.50;98680.03;5089276;28;19974;-92
2022/07/04 07:55:23;;;;;;;9.32;6.00;;;;;;;30.53;37.06;98671.81;5089312;28;20123;-91
2022/07/04 07:57:49;;;;;;;9.65;6.18;;;;;;;30.86;36.85;98683.66;5088294;28;20060;-92
2022/07/04 08:00:15;;;;;;;10.45;5.88;;;;;;;31.04;36.60;98677.97;5088363;28;20044;-91
2022/07/04 08:05:37;;;;;;;9.45;5.97;;;;;;;31.29;36.31;98676.03;5090192;27;20871;-92
2022/07/04 08:08:03;;;;;;;8.45;5.95;;;;;;;31.39;35.99;98664.84;5086915;28;20134;-91
2022/07/04 08:10:29;;;;;;;8.70;5.60;;;;;;;31.71;35.23;98683.97;5089285;28;20123;-90
2022/07/04 08:12:55;;;;;;;11.52;5.68;;;;;;;31.63;36.00;98653.75;5088591;28;20557;-90
2022/07/04 08:15:21;;;;;;;7.53;5.68;;;;;;;32.00;34.79;98674.22;5088501;28;20130;-89
2022/07/04 08:17:47;;;;;;;7.03;5.40;;;;;;;31.83;35.01;98675.31;5085975;28;20127;-93
2022/07/04 08:20:13;;;;;;;7.50;5.80;;;;;;;31.89;34.66;98666.34;5089316;28;20048;-90
2022/07/04 08:22:40;;;;;;;9.75;5.97;;;;;;;32.12;34.13;98664.53;5088665;28;20173;-90
2022/07/04 08:25:06;;;;;;;9.02;5.88;;;;;;;32.16;34.71;98653.13;5089241;28;20040;-92
2022/07/04 08:27:32;;;;;;;11.10;5.65;;;;;;;32.21;34.52;98637.81;5088461;28;20060;-91
2022/07/04 08:29:58;;;;;;;15.52;5.80;;;;;;;32.47;34.90;98650.34;5089356;28;20075;-91
2022/07/04 08:32:24;;;;;;;12.80;6.25;;;;;;;32.49;34.15;98638.09;5089072;28;20052;-91
2022/07/04 08:34:49;;;;;;;9.90;6.22;;;;;;;32.64;34.31;98643.69;5089853;28;20525;-92
2022/07/04 08:37:15;;;;;;;8.80;5.72;;;;;;;32.82;34.63;98648.84;5088802;28;20123;-92
2022/07/04 08:39:42;;;;;;;10.35;6.63;;;;;;;32.93;33.53;98664.06;5088873;28;20132;-93
2022/07/04 08:42:15;;;;;;;9.77;6.15;;;;;;;32.68;34.43;98642.28;5089230;28;20463;-88
2022/07/04 08:44:47;;;;;;;10.48;6.50;;;;;;;33.00;33.41;98650.38;5089138;28;20036;-91
2022/07/04 08:47:17;;;;;;;11.00;6.35;;;;;;;32.93;33.72;98636.50;5089893;28;20033;-91
2022/07/04 08:49:46;;;;;;;10.35;6.15;;;;;;;33.15;33.21;98634.75;5088372;28;20036;-91
2022/07/04 08:52:13;;;;;;;;;;;;;;;33.39;33.37;98649.28;5089070;28;20090;-90
2022/07/04 09:00:36;;;;;;;11.15;6.90;;;;;;;33.32;33.64;98652.81;5129450;27;20411;-90
2022/07/04 09:03:03;;;;;;;9.57;6.32;;;;;;;33.47;33.02;98635.41;5131330;27;20902;-93
2022/07/04 09:05:31;;;;;;;9.93;6.10;;;;;;;33.37;32.48;98643.97;5131028;28;20039;-90
2022/07/04 09:07:58;;;;;;;9.65;6.13;;;;;;;33.42;32.83;98637.88;5127865;27;20488;-91
2022/07/04 09:10:24;;;;;;;9.55;6.70;;;;;;;33.69;32.70;98628.94;5129804;27;20035;-92
2022/07/04 09:12:50;;;;;;;11.23;6.20;;;;;;;33.74;31.16;98637.47;5129699;28;20035;-92
2022/07/04 09:15:17;;;;;;;13.85;6.00;;;;;;;33.87;31.29;98628.50;5130930;27;20038;-88
2022/07/04 09:17:45;;;;;;;11.02;6.68;;;;;;;33.83;30.96;98635.47;5132689;27;20039;-93
2022/07/04 09:20:15;;;;;;;10.48;6.18;;;;;;;33.76;31.01;98621.56;5128307;28;20416;-91
2022/07/04 09:22:42;;;;;;;12.20;6.60;;;;;;;34.04;31.59;98620.84;5130722;27;20805;-92
2022/07/04 09:25:08;;;;;;;8.77;6.43;;;;;;;34.28;30.78;98633.41;5130277;27;20036;-92
2022/07/04 09:27:36;;;;;;;9.75;6.03;;;;;;;34.48;30.71;98619.81;5129761;28;20031;-91
2022/07/04 09:30:04;;;;;;;8.57;5.97;;;;;;;34.65;30.33;98644.41;5131432;27;20044;-88
2022/07/04 09:32:35;;;;;;;10.27;6.15;;;;;;;34.76;30.39;98635.56;5130622;27;20408;-90
2022/07/04 09:35:03;;;;;;;8.88;5.55;;;;;;;34.30;29.54;98631.31;5128745;27;20489;-93
2022/07/04 09:37:38;;;;;;;6.93;6.07;;;;;;;34.38;29.76;98633.09;5131281;27;20507;-93
2022/07/04 09:40:07;;;;;;;11.23;5.95;;;;;;;34.72;29.93;98628.75;5131307;27;20043;-89
2022/07/04 09:42:42;;;;;;;8.85;5.28;;;;;;;35.00;29.63;98636.19;5127521;28;20057;-90
2022/07/04 09:45:11;;;;;;;9.20;6.15;;;;;;;35.01;28.66;98629.59;5127444;27;20044;-89
2022/07/04 09:47:38;;;;;;;7.90;6.20;;;;;;;34.75;28.60;98622.84;5128503;27;20115;-92
2022/07/04 09:50:07;;;;;;;9.50;5.63;;;;;;;34.91;28.90;98616.97;5129649;27;20043;-92
2022/07/04 09:52:44;;;;;;;8.30;5.82;;;;;;;34.27;27.90;98628.97;5128707;27;20131;-90
2022/07/04 09:55:10;;;;;;;6.47;5.38;;;;;;;34.60;28.34;98620.13;5128182;28;20043;-90
2022/07/04 09:57:35;;;;;;;6.90;5.40;;;;;;;34.64;26.42;98615.09;5128877;28;20035;-92
2022/07/04 10:00:16;;;;;;;7.18;5.32;;;;;;;34.63;26.80;98621.66;5129251;27;20067;-89
2022/07/04 10:02:42;;;;;;;7.45;5.10;;;;;;;34.97;26.43;98630.00;5129299;27;20049;-91
2022/07/04 10:05:09;;;;;;;7.45;5.88;;;;;;;34.74;26.97;98618.34;5126853;27;20388;-90
2022/07/04 10:07:37;;;;;;;9.85;5.65;;;;;;;34.77;27.86;98635.38;5128408;27;20531;-91
2022/07/04 10:10:24;;;;;;;6.43;5.37;;;;;;;34.93;26.96;98638.91;5126408;28;20497;-91
2022/07/04 10:12:50;;;;;;;8.50;6.10;;;;;;;35.09;26.73;98626.66;5114987;28;20473;-92
2022/07/04 10:15:16;;;;;;;10.65;5.07;;;;;;;35.22;26.93;98626.81;5115653;28;20039;-90
2022/07/04 10:17:42;;;;;;;8.82;5.78;;;;;;;35.46;26.66;98630.09;5113047;28;20049;-92
2022/07/04 10:20:11;;;;;;;7.22;5.05;;;;;;;35.58;26.53;98622.94;5112835;28;20080;-92
2022/07/04 10:22:37;;;;;;;7.68;5.38;;;;;;;35.56;25.88;98636.09;5113931;27;20543;-93
2022/07/04 10:25:04;;;;;;;7.78;5.38;;;;;;;35.67;26.11;98629.16;5115399;27;21560;-93
2022/07/04 10:27:30;;;;;;;13.23;5.70;;;;;;;35.73;25.73;98631.97;5117896;27;20043;-90
2022/07/04 10:29:57;;;;;;;8.18;5.72;;;;;;;35.24;25.64;98627.44;5115350;28;20042;-93
2022/07/04 10:32:23;;;;;;;7.53;5.20;;;;;;;35.23;26.09;98620.19;5111493;28;20126;-94
2022/07/04 10:34:49;;;;;;;8.95;5.65;;;;;;;35.35;26.47;98599.22;5111526;28;20456;-89
2022/07/04 10:37:17;;;;;;;8.60;5.63;;;;;;;35.72;26.55;98602.59;5114164;28;20039;-94
2022/07/04 10:39:43;;;;;;;9.88;5.57;;;;;;;35.88;25.08;98611.59;5114019;28;20081;-91
2022/07/04 10:42:21;;;;;;;7.10;5.53;;;;;;;35.85;25.17;98612.84;5114451;27;20088;-92
2022/07/04 10:44:48;;;;;;;8.02;5.28;;;;;;;35.95;24.73;98598.59;5114759;27;20092;-94
2022/07/04 10:47:23;;;;;;;8.43;5.38;;;;;;;36.14;24.86;98610.81;5114432;27;20122;-93
2022/07/04 10:49:51;;;;;;;7.60;5.35;;;;;;;36.27;24.80;98601.69;5114630;28;20089;-93
2022/07/04 10:52:18;;;;;;;9.40;5.28;;;;;;;36.37;24.68;98588.25;5113317;27;20127;-94
2022/07/04 10:54:45;;;;;;;7.25;5.00;;;;;;;36.54;24.19;98599.78;5115272;28;20493;-90
2022/07/04 10:57:14;;;;;;;8.80;5.80;;;;;;;36.39;22.95;98584.22;5115545;27;20062;-89
2022/07/04 10:59:42;;;;;;;5.95;4.70;;;;;;;36.50;23.66;98593.81;5115080;28;20082;-92
2022/07/04 11:02:25;;;;;;;6.32;4.85;;;;;;;36.65;23.77;98590.84;5120538;27;20040;-92
2022/07/04 11:04:53;;;;;;;6.63;5.07;;;;;;;36.39;23.28;98586.13;5114010;27;20070;-94
2022/07/04 11:07:23;;;;;;;9.70;5.00;;;;;;;36.44;22.82;98588.28;5115055;28;20074;-92
2022/07/04 11:13:16;;;;;;;8.77;5.40;;;;;;;36.63;22.96;98581.03;5145240;27;20401;-91
2022/07/04 11:16:06;;;;;;;7.97;4.90;;;;;;;36.59;22.67;98587.00;5142553;27;20084;-93
2022/07/04 11:18:43;;;;;;;6.40;4.63;;;;;;;36.39;22.72;98588.91;5141273;27;20043;-91
2022/07/04 11:21:17;;;;;;;5.10;4.40;;;;;;;36.23;22.23;98586.56;5142597;27;20496;-92
2022/07/04 11:23:49;;;;;;;6.68;5.10;;;;;;;35.89;22.71;98585.59;5138621;27;20039;-90
2022/07/04 11:26:15;;;;;;;5.90;4.80;;;;;;;36.05;22.40;98582.47;5146425;27;20037;-91
2022/07/04 11:28:42;;;;;;;5.47;4.68;;;;;;;35.89;22.54;98561.56;5143652;27;20039;-94
2022/07/04 11:31:09;;;;;;;7.65;4.50;;;;;;;35.99;21.03;98550.09;5144513;27;20369;-92
2022/07/04 11:33:36;;;;;;;5.90;4.27;;;;;;;36.31;21.87;98561.44;5143653;27;20516;-91
2022/07/04 11:36:04;;;;;;;7.45;4.25;;;;;;;36.25;21.31;98565.91;5145259;27;20125;-93
2022/07/04 11:38:50;;;;;;;7.00;4.40;;;;;;;36.41;20.58;98550.75;5144433;27;20446;-91
2022/07/04 11:47:31;;;;;;;7.75;4.63;;;;;;;37.13;20.90;98570.31;5050897;27;20385;-91
2022/07/04 11:49:59;;;;;;;8.43;4.20;;;;;;;37.01;20.81;98562.66;5050423;28;20103;-94
2022/07/04 11:52:26;;;;;;;4.97;4.28;;;;;;;36.97;19.93;98555.84;5049402;28;20561;-96
2022/07/04 11:54:52;;;;;;;6.88;4.43;;;;;;;36.87;21.72;98530.50;5050513;28;20097;-95
2022/07/04 11:57:22;;;;;;;5.30;4.50;;;;;;;36.79;20.63;98550.97;5049827;28;20075;-92
2022/07/04 11:59:56;;;;;;;5.82;4.18;;;;;;;36.82;21.28;98555.22;5049770;28;20049;-93